Time;durP1;ratioP1;P1;durP2;ratioP2;P2;SDS_P1;SDS_P2;PMS_P1;PMS_P2;Temp;Humidity;BMP_temperature;BMP_pressure;BME280_temperature;BME280_humidity;BME280_pressure;Samples;Min_cycle;Max_cycle;Signal;HPM_P1;HPM_P2
2021/03/17 00:00:12;;;;;;;15.90;12.32;;;;;;;2.79;69.57;93443.06;4222622;28;20047;-83
2021/03/17 00:02:13;;;;;;;16.23;14.00;;;;;;;2.80;69.38;93473.16;4232862;28;20087;-84
2021/03/17 00:04:14;;;;;;;16.70;14.00;;;;;;;2.77;69.59;93450.16;4232490;28;20043;-83
2021/03/17 00:06:16;;;;;;;19.63;14.60;;;;;;;2.79;69.64;93450.84;4213100;28;20079;-82
2021/03/17 00:08:21;;;;;;;17.38;14.38;;;;;;;2.77;69.91;93450.97;4233666;28;20501;-84
2021/03/17 00:10:24;;;;;;;18.60;14.55;;;;;;;2.78;69.77;93452.63;4228030;28;20044;-82
2021/03/17 00:12:25;;;;;;;16.40;14.17;;;;;;;2.78;69.90;93446.63;4241997;28;20141;-83
2021/03/17 00:14:27;;;;;;;19.83;14.43;;;;;;;2.87;69.83;93451.75;4245080;28;20295;-84
2021/03/17 00:16:28;;;;;;;18.17;14.38;;;;;;;2.90;69.63;93435.13;4244326;28;20103;-83
2021/03/17 00:18:29;;;;;;;17.85;14.40;;;;;;;2.91;69.30;93452.28;4222280;28;20056;-84
2021/03/17 00:20:31;;;;;;;16.35;13.65;;;;;;;2.83;69.46;93455.56;4220062;28;20051;-84
2021/03/17 00:22:32;;;;;;;18.15;13.90;;;;;;;2.84;70.00;93448.66;4226489;28;20050;-84
2021/03/17 00:24:35;;;;;;;18.40;15.18;;;;;;;2.85;70.52;93445.91;4229425;28;20054;-72
2021/03/17 00:26:36;;;;;;;19.10;14.35;;;;;;;2.83;70.44;93445.22;4228248;28;20044;-70
2021/03/17 00:28:37;;;;;;;18.98;14.82;;;;;;;2.89;70.71;93438.69;4211608;28;20667;-70
2021/03/17 00:30:40;;;;;;;16.27;13.60;;;;;;;2.76;70.65;93457.09;4229856;27;20051;-71
2021/03/17 00:32:43;;;;;;;17.83;14.55;;;;;;;2.82;70.96;93442.81;4220848;27;20052;-70
2021/03/17 00:34:44;;;;;;;17.83;13.85;;;;;;;2.87;70.46;93435.41;4229964;27;20055;-71
2021/03/17 00:36:46;;;;;;;17.08;13.85;;;;;;;2.84;70.84;93441.69;4228919;28;20051;-70
2021/03/17 00:38:48;;;;;;;16.40;13.18;;;;;;;2.83;70.80;93436.66;4232270;27;20799;-71
2021/03/17 00:40:49;;;;;;;15.68;12.80;;;;;;;2.82;70.81;93441.03;4218720;28;20066;-71
2021/03/17 00:42:50;;;;;;;14.32;12.38;;;;;;;2.72;71.03;93436.84;4211108;28;20048;-70
2021/03/17 00:44:52;;;;;;;16.92;12.68;;;;;;;2.65;71.50;93436.63;4228966;28;20067;-71
2021/03/17 00:46:53;;;;;;;15.35;12.50;;;;;;;2.67;71.44;93419.19;4236382;27;20049;-69
2021/03/17 00:48:54;;;;;;;15.95;12.18;;;;;;;2.66;71.12;93427.88;4202927;28;20052;-71
2021/03/17 00:50:55;;;;;;;14.13;12.57;;;;;;;2.66;71.39;93431.28;4218336;28;20135;-72
2021/03/17 00:52:57;;;;;;;17.42;12.15;;;;;;;2.75;71.00;93416.69;4229153;28;20082;-71
2021/03/17 00:54:58;;;;;;;14.25;11.65;;;;;;;2.71;70.36;93433.47;4209047;28;20052;-70
2021/03/17 00:56:59;;;;;;;12.98;11.07;;;;;;;2.67;70.35;93432.13;4209591;28;20048;-71
2021/03/17 00:59:01;;;;;;;16.15;11.90;;;;;;;2.68;70.44;93425.97;4193508;28;20049;-70
2021/03/17 01:01:02;;;;;;;14.93;11.80;;;;;;;2.68;70.63;93425.97;4218672;28;20051;-83
2021/03/17 01:03:04;;;;;;;13.35;10.88;;;;;;;2.66;69.89;93423.53;4221196;28;20044;-71
2021/03/17 01:05:06;;;;;;;14.13;11.55;;;;;;;2.57;70.34;93415.81;4239214;27;20043;-71
2021/03/17 01:07:08;;;;;;;15.48;11.15;;;;;;;2.60;70.52;93420.69;4212184;28;20048;-69
2021/03/17 01:09:09;;;;;;;14.05;11.15;;;;;;;2.58;70.29;93420.03;4235152;27;20324;-70
2021/03/17 01:11:11;;;;;;;13.65;11.23;;;;;;;2.57;70.05;93423.56;4227119;28;20093;-72
2021/03/17 01:13:12;;;;;;;14.57;10.57;;;;;;;2.55;70.10;93418.53;4221292;28;20051;-71
2021/03/17 01:15:17;;;;;;;14.05;10.40;;;;;;;2.56;69.67;93417.59;4210361;28;20444;-70
2021/03/17 01:17:19;;;;;;;12.00;9.70;;;;;;;2.60;69.71;93400.84;4209433;28;20472;-71
2021/03/17 01:19:20;;;;;;;14.68;10.18;;;;;;;2.54;69.87;93410.91;4228199;28;20043;-70
2021/03/17 01:21:21;;;;;;;12.73;9.73;;;;;;;2.64;69.18;93409.91;4228634;28;20051;-71
2021/03/17 01:23:23;;;;;;;13.50;10.02;;;;;;;2.62;68.83;93403.25;4233515;27;20555;-70
2021/03/17 01:25:41;;;;;;;13.63;10.02;;;;;;;2.63;68.42;93423.00;4231226;27;20044;-71
2021/03/17 01:27:43;;;;;;;11.85;8.80;;;;;;;2.62;68.33;93413.59;4209809;28;20047;-71
2021/03/17 01:29:44;;;;;;;13.50;9.43;;;;;;;2.60;68.43;93406.00;4212336;28;20135;-70
2021/03/17 01:31:46;;;;;;;17.67;9.88;;;;;;;2.61;68.22;93412.81;4220259;28;20428;-70
2021/03/17 01:33:48;;;;;;;14.27;9.73;;;;;;;2.64;67.30;93409.13;4206108;28;20492;-82
2021/03/17 01:35:50;;;;;;;13.35;9.05;;;;;;;2.60;67.47;93402.59;4227557;28;20047;-82
2021/03/17 01:37:51;;;;;;;13.65;9.52;;;;;;;2.69;66.74;93406.09;4223041;28;20142;-83
2021/03/17 01:39:53;;;;;;;12.48;10.15;;;;;;;2.65;67.19;93400.41;4224795;28;20396;-82
2021/03/17 01:41:54;;;;;;;16.50;10.10;;;;;;;2.72;66.79;93405.81;4230511;28;20085;-84
2021/03/17 01:43:55;;;;;;;15.07;10.55;;;;;;;2.71;66.71;93399.84;4231153;28;20051;-84
2021/03/17 01:45:56;;;;;;;12.25;9.82;;;;;;;2.79;66.49;93405.09;4230910;28;20494;-81
2021/03/17 01:47:59;;;;;;;13.15;9.93;;;;;;;2.87;66.23;93405.19;4230817;28;20075;-85
2021/03/17 01:50:00;;;;;;;13.35;8.75;;;;;;;2.87;65.97;93414.72;4212595;28;20155;-71
2021/03/17 01:52:02;;;;;;;13.52;9.45;;;;;;;2.79;66.25;93409.47;4227392;28;20063;-70
2021/03/17 01:54:05;;;;;;;11.05;9.20;;;;;;;2.74;66.17;93399.53;4208753;28;20044;-70
2021/03/17 01:56:07;;;;;;;13.02;9.05;;;;;;;2.77;65.98;93399.25;4225788;28;20046;-71
2021/03/17 01:58:09;;;;;;;13.00;9.55;;;;;;;2.62;66.19;93411.88;4212475;28;20047;-82
2021/03/17 02:00:14;;;;;;;12.93;9.10;;;;;;;2.68;66.04;93415.63;4223870;28;20098;-84
2021/03/17 02:02:15;;;;;;;10.95;8.85;;;;;;;2.72;66.00;93398.88;4225597;28;20482;-84
2021/03/17 02:04:17;;;;;;;11.75;9.10;;;;;;;2.70;66.07;93416.31;4217600;28;20056;-84
2021/03/17 02:06:19;;;;;;;11.52;9.00;;;;;;;2.62;66.42;93398.94;4213593;28;20430;-85
2021/03/17 02:08:21;;;;;;;15.45;8.73;;;;;;;2.63;66.47;93420.44;4217605;28;20463;-83
2021/03/17 02:10:24;;;;;;;10.95;8.68;;;;;;;2.67;66.07;93407.06;4204476;28;20048;-84
2021/03/17 02:12:43;;;;;;;12.60;8.63;;;;;;;2.66;65.93;93402.84;4203242;28;20041;-82
2021/03/17 02:15:21;;;;;;;15.65;9.30;;;;;;;2.60;66.40;93421.53;4215200;28;20048;-84
2021/03/17 02:17:25;;;;;;;12.80;9.13;;;;;;;2.61;66.61;93404.25;4212637;28;20048;-82
2021/03/17 02:20:15;;;;;;;12.00;9.60;;;;;;;2.61;66.41;93407.63;4229269;28;20043;-82
2021/03/17 02:22:54;;;;;;;11.55;9.18;;;;;;;2.54;66.21;93421.25;4159782;28;20045;-86
2021/03/17 02:25:04;;;;;;;13.38;9.25;;;;;;;2.58;66.25;93405.34;4189606;28;20052;-82
2021/03/17 02:27:27;;;;;;;10.90;8.48;;;;;;;2.53;66.33;93411.88;4212673;28;20048;-85
2021/03/17 02:29:53;;;;;;;11.73;9.00;;;;;;;2.54;66.27;93414.34;4229811;28;20043;-85
2021/03/17 02:32:13;;;;;;;10.63;8.23;;;;;;;2.58;66.23;93427.78;4232574;28;20077;-85
2021/03/17 02:34:18;;;;;;;10.80;8.32;;;;;;;2.50;66.47;93428.50;4227373;28;20043;-84
2021/03/17 02:36:34;;;;;;;10.95;8.88;;;;;;;2.52;66.03;93433.50;4230202;28;20062;-83
2021/03/17 02:38:37;;;;;;;10.20;8.80;;;;;;;2.58;65.94;93433.78;4216883;28;20052;-83
2021/03/17 02:40:39;;;;;;;11.48;9.05;;;;;;;2.58;65.98;93427.78;4212529;28;20062;-85
2021/03/17 02:42:47;;;;;;;12.07;9.20;;;;;;;2.45;66.17;93435.84;4199001;28;20430;-84
2021/03/17 02:44:51;;;;;;;10.13;8.85;;;;;;;2.54;66.01;93431.59;4204285;28;20126;-84
2021/03/17 02:46:54;;;;;;;10.43;8.05;;;;;;;2.54;65.50;93449.69;4213028;28;20095;-83
2021/03/17 02:49:00;;;;;;;12.35;8.65;;;;;;;2.53;65.77;93437.75;4211788;28;20100;-83
2021/03/17 02:51:05;;;;;;;10.50;8.48;;;;;;;2.42;65.96;93429.19;4230026;28;20055;-83
2021/03/17 02:53:07;;;;;;;10.70;8.55;;;;;;;2.54;65.86;93442.78;4218226;28;20050;-84
2021/03/17 02:55:10;;;;;;;14.88;9.20;;;;;;;2.57;65.60;93428.75;4227269;28;20051;-83
2021/03/17 02:57:17;;;;;;;11.60;8.52;;;;;;;2.53;65.29;93432.56;4215951;28;20036;-83
2021/03/17 02:59:20;;;;;;;11.55;9.43;;;;;;;2.53;65.64;93435.16;4218011;28;20429;-84
2021/03/17 03:01:22;;;;;;;10.43;8.68;;;;;;;2.52;65.36;93431.75;4195401;28;20048;-83
2021/03/17 03:03:26;;;;;;;10.27;8.20;;;;;;;2.61;65.06;93430.91;4205681;28;20044;-82
2021/03/17 03:05:29;;;;;;;9.45;7.97;;;;;;;2.65;64.30;93432.25;4211445;28;20056;-83
2021/03/17 03:07:31;;;;;;;9.55;8.02;;;;;;;2.56;64.61;93427.09;4211445;28;20040;-84
2021/03/17 03:09:33;;;;;;;10.25;8.27;;;;;;;2.50;65.08;93431.09;4228804;28;20062;-84
2021/03/17 03:11:36;;;;;;;9.43;8.43;;;;;;;2.42;64.89;93426.59;4229564;28;20118;-84
2021/03/17 03:13:37;;;;;;;13.07;8.57;;;;;;;2.42;65.38;93423.22;4225312;28;20081;-71
2021/03/17 03:15:46;;;;;;;10.80;8.93;;;;;;;2.49;65.15;93431.22;4183087;28;20053;-70
2021/03/17 03:17:48;;;;;;;10.95;8.68;;;;;;;2.51;64.45;93448.22;4219361;28;20054;-70
2021/03/17 03:19:52;;;;;;;10.57;8.63;;;;;;;2.48;65.06;93433.00;4217514;28;20478;-70
2021/03/17 03:21:54;;;;;;;11.07;8.68;;;;;;;2.49;64.94;93433.81;4218080;28;20514;-72
2021/03/17 03:23:57;;;;;;;9.77;8.43;;;;;;;2.52;64.66;93424.00;4227014;28;20134;-85
2021/03/17 03:25:58;;;;;;;11.60;8.75;;;;;;;2.59;64.33;93435.41;4211583;28;20102;-83
2021/03/17 03:28:11;;;;;;;11.60;9.27;;;;;;;2.61;64.47;93456.75;4229736;28;20097;-83
2021/03/17 03:30:15;;;;;;;10.98;8.57;;;;;;;2.51;64.44;93434.47;4231258;28;20513;-83
2021/03/17 03:32:17;;;;;;;10.55;8.70;;;;;;;2.49;64.62;93441.56;4196285;28;20458;-82
2021/03/17 03:34:20;;;;;;;10.63;8.63;;;;;;;2.51;64.83;93440.47;4236795;28;20107;-85
2021/03/17 03:36:22;;;;;;;10.30;8.85;;;;;;;2.54;64.20;93444.53;4235617;28;20051;-82
2021/03/17 03:38:23;;;;;;;10.18;8.48;;;;;;;2.52;64.65;93436.94;4222290;28;20051;-82
2021/03/17 03:40:25;;;;;;;10.45;9.35;;;;;;;2.54;64.44;93435.03;4236703;28;20052;-82
2021/03/17 03:42:26;;;;;;;11.25;9.38;;;;;;;2.50;64.33;93436.25;4215037;28;20048;-81
2021/03/17 03:44:27;;;;;;;13.82;9.35;;;;;;;2.44;64.45;93439.41;4215566;28;20676;-81
2021/03/17 03:46:29;;;;;;;11.00;9.35;;;;;;;2.46;64.10;93446.06;4233269;28;20044;-82
2021/03/17 03:48:31;;;;;;;10.18;8.82;;;;;;;2.44;64.41;93450.53;4233446;28;20494;-85
2021/03/17 03:50:37;;;;;;;11.23;8.85;;;;;;;2.42;64.85;93462.78;4233308;28;20551;-82
2021/03/17 03:52:50;;;;;;;11.02;9.15;;;;;;;2.41;64.34;93431.91;4233351;28;20373;-83
2021/03/17 03:54:57;;;;;;;11.27;9.47;;;;;;;2.49;63.85;93441.56;4214892;28;20059;-82
2021/03/17 03:57:28;;;;;;;11.15;8.95;;;;;;;2.44;64.14;93429.88;4215507;28;20044;-84
2021/03/17 03:59:32;;;;;;;12.02;8.52;;;;;;;2.42;63.72;93439.53;4180376;28;20044;-85
2021/03/17 04:01:47;;;;;;;;;;;;;;;2.41;63.90;93425.00;4227976;28;20124;-85
2021/03/17 04:03:54;;;;;;;10.63;9.02;;;;;;;2.40;63.65;93444.03;4215230;28;20011;-83
2021/03/17 04:05:56;;;;;;;9.70;8.48;;;;;;;2.39;64.20;93436.44;4215195;28;20108;-85
2021/03/17 04:08:02;;;;;;;10.43;9.23;;;;;;;2.43;63.87;93438.59;4198308;28;20481;-85
2021/03/17 04:10:06;;;;;;;11.35;9.23;;;;;;;2.48;63.53;93443.34;4211140;28;20583;-82
2021/03/17 04:12:08;;;;;;;10.70;9.27;;;;;;;2.51;63.35;93439.66;4229556;28;20053;-82
2021/03/17 04:14:11;;;;;;;11.80;9.50;;;;;;;2.58;63.16;93438.94;4206678;28;20076;-82
2021/03/17 04:16:29;;;;;;;9.25;8.10;;;;;;;2.44;63.32;93439.41;4209088;28;20044;-85
2021/03/17 04:18:58;;;;;;;11.48;9.20;;;;;;;2.40;63.68;93446.59;4207925;28;20048;-86
2021/03/17 04:21:03;;;;;;;11.27;8.95;;;;;;;2.40;63.49;93451.78;4219537;28;20083;-84
2021/03/17 04:23:06;;;;;;;12.05;9.60;;;;;;;2.48;63.67;93439.94;4229278;28;20510;-83
2021/03/17 04:25:09;;;;;;;11.60;8.93;;;;;;;2.43;63.50;93428.25;4200924;28;20048;-83
2021/03/17 04:27:11;;;;;;;11.13;9.00;;;;;;;2.41;63.53;93431.91;4214935;28;20422;-82
2021/03/17 04:29:13;;;;;;;11.45;9.60;;;;;;;2.37;63.08;93439.16;4214473;28;20044;-81
2021/03/17 04:31:15;;;;;;;13.82;9.95;;;;;;;2.44;63.04;93439.41;4224306;28;20055;-71
2021/03/17 04:33:17;;;;;;;11.50;9.63;;;;;;;2.52;62.70;93446.44;4213771;28;20427;-73
2021/03/17 04:35:21;;;;;;;12.85;10.25;;;;;;;2.44;62.74;93418.72;4211833;27;20052;-70
2021/03/17 04:37:22;;;;;;;12.35;9.88;;;;;;;2.51;62.38;93440.47;4217719;28;20136;-73
2021/03/17 04:39:24;;;;;;;15.18;9.63;;;;;;;2.55;62.18;93433.25;4226112;27;20053;-71
2021/03/17 04:41:26;;;;;;;11.27;9.60;;;;;;;2.57;62.17;93428.75;4226796;28;20056;-70
2021/03/17 04:43:27;;;;;;;12.57;9.18;;;;;;;2.58;61.63;93438.13;4198041;28;20052;-71
2021/03/17 04:45:29;;;;;;;13.02;9.75;;;;;;;2.50;61.68;93450.97;4209947;28;20056;-71
2021/03/17 04:47:30;;;;;;;13.05;9.68;;;;;;;2.46;61.66;93448.63;4239170;28;20044;-83
2021/03/17 04:49:32;;;;;;;11.23;9.55;;;;;;;2.47;61.95;93439.09;4227043;28;20127;-84
2021/03/17 04:51:34;;;;;;;11.27;9.95;;;;;;;2.37;61.83;93451.25;4216773;28;20518;-84
2021/03/17 04:53:36;;;;;;;12.25;9.88;;;;;;;2.40;62.19;93446.59;4233142;28;20472;-83
2021/03/17 04:55:38;;;;;;;11.43;9.30;;;;;;;2.38;61.89;93440.75;4240228;28;20368;-84
2021/03/17 04:57:42;;;;;;;11.57;10.00;;;;;;;2.27;62.23;93453.84;4231840;28;20059;-71
2021/03/17 04:59:44;;;;;;;13.88;10.45;;;;;;;2.32;62.66;93433.56;4229262;28;20047;-70
2021/03/17 05:01:46;;;;;;;14.15;10.68;;;;;;;2.34;62.05;93439.41;4220001;28;20499;-71
2021/03/17 05:03:48;;;;;;;12.02;10.40;;;;;;;2.35;61.36;93476.44;4219040;28;20525;-84
2021/03/17 05:05:52;;;;;;;12.40;10.25;;;;;;;2.25;61.69;93433.31;4214363;28;20048;-84
2021/03/17 05:07:53;;;;;;;12.23;10.45;;;;;;;2.23;61.41;93442.16;4215119;28;20085;-84
2021/03/17 05:09:55;;;;;;;13.35;10.43;;;;;;;2.33;61.74;93453.31;4221347;28;20047;-83
2021/03/17 05:11:58;;;;;;;12.80;9.90;;;;;;;2.21;61.65;93473.31;4221115;28;20048;-85
2021/03/17 05:13:59;;;;;;;14.88;10.57;;;;;;;2.25;61.41;93460.94;4201614;28;20067;-84
2021/03/17 05:16:02;;;;;;;13.13;10.90;;;;;;;2.32;61.84;93453.44;4197080;28;20490;-84
2021/03/17 05:18:07;;;;;;;11.88;10.07;;;;;;;2.27;61.58;93464.19;4231768;27;20568;-85
2021/03/17 05:20:13;;;;;;;13.37;11.10;;;;;;;2.32;61.50;93461.19;4224978;28;20048;-87
2021/03/17 05:22:14;;;;;;;11.73;9.88;;;;;;;2.37;61.47;93459.03;4215111;28;20439;-83
2021/03/17 05:24:16;;;;;;;12.23;10.40;;;;;;;2.42;61.12;93474.91;4204964;28;20175;-84
2021/03/17 05:26:17;;;;;;;14.98;10.48;;;;;;;2.33;61.13;93463.63;4232803;28;20051;-86
2021/03/17 05:28:18;;;;;;;12.23;9.73;;;;;;;2.29;61.76;93454.53;4226843;28;20104;-85
2021/03/17 05:30:22;;;;;;;14.60;10.32;;;;;;;2.37;61.26;93459.81;4230739;28;20047;-84
2021/03/17 05:32:23;;;;;;;16.75;10.95;;;;;;;2.38;61.26;93451.09;4206636;28;20093;-84
2021/03/17 05:34:25;;;;;;;12.98;9.82;;;;;;;2.34;61.42;93462.66;4224295;28;20051;-83
2021/03/17 05:36:26;;;;;;;12.63;9.95;;;;;;;2.42;60.14;93460.22;4197808;28;20140;-85
2021/03/17 05:38:28;;;;;;;11.90;9.80;;;;;;;2.39;60.49;93457.91;4223188;28;20058;-71
2021/03/17 05:40:29;;;;;;;13.32;10.30;;;;;;;2.38;61.09;93455.47;4223202;28;20094;-71
2021/03/17 05:42:31;;;;;;;13.50;10.00;;;;;;;2.32;61.01;93462.00;4197170;28;20054;-70
2021/03/17 05:44:32;;;;;;;11.23;9.55;;;;;;;2.32;60.05;93472.34;4209929;28;20050;-71
2021/03/17 05:46:34;;;;;;;13.20;10.38;;;;;;;2.36;60.88;93475.47;4207917;28;20500;-71
2021/03/17 05:48:36;;;;;;;11.82;9.77;;;;;;;2.35;60.80;93472.06;4216678;28;20084;-71
2021/03/17 05:50:38;;;;;;;12.77;10.50;;;;;;;2.25;61.43;93474.66;4213711;28;20051;-71
2021/03/17 05:52:41;;;;;;;10.35;8.35;;;;;;;2.24;60.88;93473.03;4226760;28;20044;-71
2021/03/17 05:54:43;;;;;;;10.80;8.90;;;;;;;2.27;60.71;93464.19;4227196;28;20411;-72
2021/03/17 05:56:45;;;;;;;11.70;9.45;;;;;;;2.04;61.48;93479.19;4192093;28;20057;-69
2021/03/17 05:58:46;;;;;;;10.82;8.82;;;;;;;2.22;61.58;93468.97;4210558;28;20211;-70
2021/03/17 06:00:49;;;;;;;11.95;9.63;;;;;;;2.26;60.82;93439.31;4226774;28;20486;-73
2021/03/17 06:02:50;;;;;;;14.18;9.55;;;;;;;2.30;60.67;93484.56;4228127;28;20044;-71
2021/03/17 06:04:52;;;;;;;11.65;9.65;;;;;;;2.38;60.49;93495.03;4209135;28;20044;-72
2021/03/17 06:06:59;;;;;;;12.25;9.93;;;;;;;2.32;60.45;93459.41;4208305;28;20093;-71
2021/03/17 06:09:02;;;;;;;11.98;9.15;;;;;;;2.39;60.54;93468.25;4208467;28;20055;-71
2021/03/17 06:11:07;;;;;;;12.65;10.18;;;;;;;2.35;60.59;93477.25;4194105;28;20048;-71
2021/03/17 06:13:13;;;;;;;12.00;9.38;;;;;;;2.45;60.12;93477.19;4228368;28;20047;-73
2021/03/17 06:15:20;;;;;;;13.82;10.07;;;;;;;2.32;60.55;93485.25;4192024;28;20535;-72
2021/03/17 06:17:23;;;;;;;12.48;10.57;;;;;;;2.45;60.43;93479.78;4210110;28;20123;-70
2021/03/17 06:19:32;;;;;;;10.18;8.65;;;;;;;2.55;60.12;93487.53;4207915;28;20135;-72
2021/03/17 06:21:34;;;;;;;13.00;9.80;;;;;;;2.52;60.16;93495.56;4204259;28;20086;-71
2021/03/17 06:23:35;;;;;;;11.98;9.82;;;;;;;2.54;60.35;93488.47;4206179;28;20535;-72
2021/03/17 06:25:44;;;;;;;11.48;9.20;;;;;;;2.50;60.07;93492.31;4219752;28;20141;-72
2021/03/17 06:27:46;;;;;;;11.88;9.68;;;;;;;2.55;59.96;93501.25;4222596;28;20055;-72
2021/03/17 06:29:52;;;;;;;10.48;9.20;;;;;;;2.52;59.98;93483.47;4204171;28;20067;-73
2021/03/17 06:31:53;;;;;;;11.63;9.32;;;;;;;2.45;59.81;93496.13;4218938;28;20040;-72
2021/03/17 06:33:55;;;;;;;13.27;9.63;;;;;;;2.40;60.35;93480.22;4225997;28;20090;-87
2021/03/17 06:36:14;;;;;;;11.65;9.25;;;;;;;2.48;60.11;93495.03;4200884;28;20059;-85
2021/03/17 06:38:23;;;;;;;12.00;9.90;;;;;;;2.52;59.71;93486.03;4220543;28;20542;-86
2021/03/17 06:40:36;;;;;;;10.65;9.00;;;;;;;2.62;59.41;93496.34;4208852;28;20117;-72
2021/03/17 06:42:39;;;;;;;13.95;9.57;;;;;;;2.60;59.75;93486.16;4208625;28;20059;-72
2021/03/17 06:44:40;;;;;;;11.07;8.70;;;;;;;2.64;59.46;93507.38;4208630;28;20360;-73
2021/03/17 06:46:41;;;;;;;11.18;8.73;;;;;;;2.60;59.13;93490.50;4223836;28;20047;-71
2021/03/17 06:48:43;;;;;;;12.98;9.32;;;;;;;2.67;59.35;93496.75;4227592;28;20079;-72
2021/03/17 06:50:46;;;;;;;14.10;9.27;;;;;;;2.63;59.40;93491.03;4207964;28;20066;-73
2021/03/17 06:52:48;;;;;;;11.90;9.38;;;;;;;2.60;59.58;93500.84;4225969;28;20058;-71
2021/03/17 06:55:18;;;;;;;10.80;8.60;;;;;;;2.65;59.05;93496.09;4225966;28;20059;-71
2021/03/17 06:57:26;;;;;;;12.00;8.45;;;;;;;2.56;59.22;93489.97;4209309;28;20447;-71
2021/03/17 06:59:27;;;;;;;11.10;8.75;;;;;;;2.64;59.65;93509.94;4226652;28;20043;-71
2021/03/17 07:01:37;;;;;;;10.75;8.88;;;;;;;2.67;59.30;93507.09;4210052;28;20044;-74
2021/03/17 07:03:40;;;;;;;10.20;8.27;;;;;;;2.63;59.20;93487.66;4227018;28;21115;-74
2021/03/17 07:05:43;;;;;;;10.18;8.75;;;;;;;2.73;59.53;93497.94;4225894;28;20058;-72
2021/03/17 07:07:49;;;;;;;;;;;;;;;2.80;59.40;93515.34;4224481;28;20056;-72
2021/03/17 07:09:59;;;;;;;11.75;9.00;;;;;;;2.64;59.55;93509.94;4211693;28;19920;-73
2021/03/17 07:12:08;;;;;;;10.82;9.18;;;;;;;2.55;59.74;93510.81;4201401;28;20076;-73
2021/03/17 07:14:10;;;;;;;14.40;9.55;;;;;;;2.34;60.23;93506.59;4221612;28;20087;-71
2021/03/17 07:16:11;;;;;;;13.02;10.05;;;;;;;2.51;60.41;93499.91;4227861;28;20389;-72
2021/03/17 07:18:25;;;;;;;13.35;10.55;;;;;;;2.62;60.02;93502.34;4213664;28;20048;-72
2021/03/17 07:20:37;;;;;;;11.82;8.73;;;;;;;2.49;59.80;93509.56;4224401;28;20048;-72
2021/03/17 07:22:39;;;;;;;10.85;8.93;;;;;;;2.61;59.64;93503.28;4213735;28;20438;-86
2021/03/17 07:24:42;;;;;;;10.68;8.50;;;;;;;2.55;59.63;93490.13;4236826;27;20054;-86
2021/03/17 07:26:43;;;;;;;;;;;;;;;2.56;59.82;93531.34;4201670;28;20048;-86
2021/03/17 07:28:48;;;;;;;11.38;8.65;;;;;;;2.61;59.38;93497.31;4247063;27;19984;-87
2021/03/17 07:30:49;;;;;;;10.75;8.65;;;;;;;2.60;59.50;93488.75;4236014;28;20112;-86
2021/03/17 07:33:03;;;;;;;10.55;8.45;;;;;;;2.73;59.63;93490.19;4235541;28;20069;-84
2021/03/17 07:35:28;;;;;;;11.13;8.30;;;;;;;2.74;59.29;93497.00;4200207;28;20511;-85
2021/03/17 07:37:31;;;;;;;10.68;8.20;;;;;;;2.68;59.29;93493.19;4226640;28;20036;-86
2021/03/17 07:39:38;;;;;;;11.95;9.10;;;;;;;2.66;59.21;93495.91;4234579;28;20050;-85
2021/03/17 07:41:40;;;;;;;11.70;8.80;;;;;;;2.66;59.23;93495.91;4216991;28;20115;-85
2021/03/17 07:43:42;;;;;;;11.85;8.82;;;;;;;2.63;60.08;93500.56;4216510;28;20052;-86
2021/03/17 07:45:43;;;;;;;13.48;8.90;;;;;;;2.56;60.00;93500.31;4220042;28;20392;-86
2021/03/17 07:47:45;;;;;;;11.65;9.15;;;;;;;2.67;60.08;93512.28;4233814;28;20131;-85
2021/03/17 07:49:47;;;;;;;9.93;8.30;;;;;;;2.81;59.27;93505.81;4200798;28;20066;-83
2021/03/17 07:51:53;;;;;;;13.18;7.57;;;;;;;2.72;59.07;93510.06;4234141;28;20126;-86
2021/03/17 07:53:56;;;;;;;11.20;8.30;;;;;;;2.66;59.48;93511.44;4215908;28;20044;-85
2021/03/17 07:56:05;;;;;;;11.35;8.82;;;;;;;2.65;60.05;93511.59;4215306;28;20051;-87
2021/03/17 07:58:09;;;;;;;10.43;8.75;;;;;;;2.72;59.83;93509.25;4235010;28;20047;-85
2021/03/17 08:00:12;;;;;;;13.95;8.82;;;;;;;2.77;59.69;93507.88;4200422;28;20087;-85
2021/03/17 08:02:15;;;;;;;9.55;7.85;;;;;;;2.94;59.43;93511.50;4218520;28;20467;-87
2021/03/17 08:07:35;;;;;;;12.68;8.60;;;;;;;2.63;60.48;93524.66;4230103;27;20092;-88
2021/03/17 08:09:38;;;;;;;10.88;8.35;;;;;;;2.73;60.40;93506.53;4217159;28;20105;-85
2021/03/17 08:11:43;;;;;;;11.05;8.38;;;;;;;2.72;60.83;93520.41;4235343;28;20555;-85
2021/03/17 08:13:50;;;;;;;9.50;7.85;;;;;;;2.58;61.47;93518.25;4216651;28;20060;-88
2021/03/17 08:15:52;;;;;;;10.38;8.48;;;;;;;2.67;61.91;93525.19;4216722;28;20483;-72
2021/03/17 08:17:54;;;;;;;10.07;8.23;;;;;;;2.73;61.22;93519.47;4211935;28;20047;-84
2021/03/17 08:20:22;;;;;;;11.48;7.63;;;;;;;2.68;61.20;93513.88;4216410;28;20522;-86
2021/03/17 08:22:36;;;;;;;11.18;7.63;;;;;;;2.61;61.19;93512.84;4208168;28;20131;-86
2021/03/17 08:24:42;;;;;;;9.98;8.27;;;;;;;2.60;61.40;93512.03;4215947;28;20517;-87
2021/03/17 08:26:45;;;;;;;7.70;6.28;;;;;;;2.73;60.92;93516.88;4200662;28;20606;-87
2021/03/17 08:28:52;;;;;;;10.07;7.72;;;;;;;2.72;60.75;93517.03;4215357;28;20052;-84
2021/03/17 08:30:55;;;;;;;10.80;7.93;;;;;;;2.63;61.10;93510.91;4191819;28;20072;-71
2021/03/17 08:32:59;;;;;;;9.48;7.28;;;;;;;2.65;61.22;93524.53;4222108;27;20082;-72
2021/03/17 08:35:01;;;;;;;8.60;7.13;;;;;;;2.72;60.92;93523.00;4235919;27;20221;-72
2021/03/17 08:37:04;;;;;;;11.10;7.97;;;;;;;2.69;61.00;93520.72;4237790;27;20452;-71
2021/03/17 08:39:05;;;;;;;7.78;6.63;;;;;;;2.49;61.61;93527.66;4193259;28;20053;-70
2021/03/17 08:41:07;;;;;;;11.73;7.90;;;;;;;2.48;61.64;93520.88;4228530;28;20044;-72
2021/03/17 08:43:30;;;;;;;8.77;6.63;;;;;;;2.53;61.01;93508.34;4227973;28;20051;-73
2021/03/17 08:45:42;;;;;;;7.90;6.63;;;;;;;2.66;60.65;93515.81;4229672;28;20047;-70
2021/03/17 08:47:48;;;;;;;8.00;6.55;;;;;;;2.73;60.56;93527.22;4229458;28;20054;-71
2021/03/17 08:49:58;;;;;;;7.53;6.45;;;;;;;2.77;60.67;93523.38;4210662;28;20587;-71
2021/03/17 08:52:00;;;;;;;8.15;6.50;;;;;;;2.82;61.05;93513.44;4211384;28;20047;-71
2021/03/17 08:54:02;;;;;;;10.20;6.85;;;;;;;2.76;61.34;93519.19;4208568;28;20051;-72
2021/03/17 08:56:03;;;;;;;10.65;7.65;;;;;;;2.72;61.55;93519.59;4211062;28;20414;-70
2021/03/17 08:58:08;;;;;;;9.75;7.80;;;;;;;2.82;61.81;93523.78;4227824;28;20054;-72
2021/03/17 09:00:10;;;;;;;8.90;7.15;;;;;;;2.81;61.21;93516.97;4222509;28;20071;-71
2021/03/17 09:02:32;;;;;;;10.82;7.78;;;;;;;2.81;61.56;93516.97;4229489;28;20044;-71
2021/03/17 09:04:44;;;;;;;8.05;6.97;;;;;;;2.92;61.33;93513.41;4193652;28;20047;-70
2021/03/17 09:07:06;;;;;;;10.00;7.40;;;;;;;2.80;61.42;93528.28;4227817;28;20510;-71
2021/03/17 09:09:17;;;;;;;9.30;6.55;;;;;;;2.91;61.14;93527.31;4198997;28;20051;-73
2021/03/17 09:11:30;;;;;;;8.02;6.90;;;;;;;2.91;61.22;93523.91;4204288;28;20127;-72
2021/03/17 09:13:53;;;;;;;8.73;6.72;;;;;;;2.87;61.24;93521.59;4239680;27;20062;-71
2021/03/17 09:16:03;;;;;;;11.80;6.65;;;;;;;2.97;61.10;93518.16;4209866;28;20522;-72
2021/03/17 09:18:08;;;;;;;9.20;6.45;;;;;;;2.92;61.09;93513.41;4227408;28;20490;-71
2021/03/17 09:20:25;;;;;;;7.43;6.47;;;;;;;2.93;61.64;93517.63;4226649;28;20080;-70
2021/03/17 09:22:41;;;;;;;8.20;7.10;;;;;;;2.91;61.95;93539.44;4224677;28;20051;-73
2021/03/17 09:24:43;;;;;;;9.73;7.28;;;;;;;2.82;61.83;93521.22;4239204;27;20047;-73
2021/03/17 09:26:45;;;;;;;7.80;6.93;;;;;;;2.89;62.18;93531.00;4215479;27;20058;-71
2021/03/17 09:28:46;;;;;;;8.82;7.55;;;;;;;2.86;62.21;93526.91;4211762;28;20117;-71
2021/03/17 09:30:59;;;;;;;8.57;7.35;;;;;;;2.81;62.08;93545.44;4228068;28;20049;-71
2021/03/17 09:33:07;;;;;;;9.55;7.85;;;;;;;2.82;62.29;93516.03;4219115;28;20086;-72
2021/03/17 09:35:15;;;;;;;10.68;8.02;;;;;;;2.68;62.49;93550.09;4218484;27;20130;-73
2021/03/17 09:37:16;;;;;;;9.23;7.25;;;;;;;2.79;62.17;93531.00;4214605;28;20138;-74
2021/03/17 09:39:18;;;;;;;9.48;7.57;;;;;;;2.51;63.28;93553.41;4225770;28;20059;-71
2021/03/17 09:41:28;;;;;;;9.77;8.18;;;;;;;2.47;63.59;93542.50;4228148;28;20092;-73
2021/03/17 09:43:36;;;;;;;12.68;7.93;;;;;;;2.52;63.36;93539.50;4209327;28;20072;-72
2021/03/17 09:45:37;;;;;;;11.25;8.10;;;;;;;2.52;63.73;93535.16;4223224;28;20059;-73
2021/03/17 09:47:38;;;;;;;11.30;8.48;;;;;;;2.43;64.13;93534.22;4228918;28;20047;-72
2021/03/17 09:52:03;;;;;;;10.55;8.63;;;;;;;2.60;64.00;93544.78;4223730;28;20135;-72
2021/03/17 09:54:08;;;;;;;9.90;8.32;;;;;;;2.76;63.65;93536.47;4224277;28;20047;-72